createdAt,value
2019-01-09T00:00:23.650Z,980.71
2019-01-09T00:01:19.584Z,980.86
2019-01-09T00:02:17.185Z,980.82
2019-01-09T00:03:32.156Z,980.86
2019-01-09T00:04:32.119Z,980.93
2019-01-09T00:05:28.118Z,980.84
2019-01-09T00:06:22.565Z,980.87
2019-01-09T00:07:18.678Z,980.98
2019-01-09T00:08:18.592Z,980.94
2019-01-09T00:09:19.091Z,981.05
2019-01-09T00:10:19.145Z,981.16
2019-01-09T00:11:18.057Z,981.24
2019-01-09T00:12:19.604Z,981.21
2019-01-09T00:13:17.781Z,981.34
2019-01-09T00:14:18.718Z,981.31
2019-01-09T00:15:19.197Z,981.40
2019-01-09T00:16:20.598Z,981.38
2019-01-09T00:17:20.250Z,981.42
2019-01-09T00:18:20.590Z,981.47
2019-01-09T00:19:18.922Z,981.37
2019-01-09T00:20:20.475Z,981.35
2019-01-09T00:21:19.231Z,981.25
2019-01-09T00:22:22.038Z,981.23
2019-01-09T00:23:24.538Z,981.24
2019-01-09T00:24:21.665Z,981.14
2019-01-09T00:25:27.588Z,981.18
2019-01-09T00:26:21.643Z,981.22
2019-01-09T00:27:20.273Z,981.20
2019-01-09T00:28:28.927Z,981.22
2019-01-09T00:29:21.555Z,981.18
2019-01-09T00:30:21.652Z,981.13
2019-01-09T00:31:32.692Z,981.13
2019-01-09T00:32:41.998Z,981.13
2019-01-09T00:33:24.140Z,981.18
2019-01-09T00:34:23.166Z,981.18
2019-01-09T00:35:50.143Z,981.08
2019-01-09T00:36:25.554Z,981.08
2019-01-09T00:37:22.878Z,981.14
2019-01-09T00:38:29.550Z,981.11
2019-01-09T00:39:46.174Z,981.16
2019-01-09T00:40:24.401Z,981.14
2019-01-09T00:41:25.086Z,981.16
2019-01-09T00:42:24.548Z,981.16
2019-01-09T00:43:26.634Z,981.19
2019-01-09T00:44:29.225Z,981.18
2019-01-09T00:45:25.074Z,981.13
2019-01-09T00:46:25.041Z,981.14
2019-01-09T00:47:24.528Z,981.14
2019-01-09T00:48:31.318Z,981.20
2019-01-09T00:49:41.070Z,981.11
2019-01-09T00:50:28.259Z,981.15
2019-01-09T00:51:28.131Z,981.17
2019-01-09T00:52:32.092Z,981.20
2019-01-09T00:53:26.085Z,981.19
2019-01-09T00:54:26.050Z,981.16
2019-01-09T00:55:27.610Z,981.13
2019-01-09T00:56:25.538Z,981.18
2019-01-09T00:57:26.165Z,981.14
2019-01-09T00:58:29.085Z,981.18
2019-01-09T00:59:33.086Z,981.15
2019-01-09T01:00:27.093Z,981.20
2019-01-09T01:01:33.589Z,981.21
2019-01-09T01:02:31.735Z,981.25
2019-01-09T01:03:27.550Z,981.16
2019-01-09T01:04:29.087Z,981.23
2019-01-09T01:05:28.162Z,981.17
2019-01-09T01:06:42.091Z,981.16
2019-01-09T01:07:26.636Z,981.12
2019-01-09T01:08:28.596Z,981.13
2019-01-09T01:09:27.985Z,981.10
2019-01-09T01:10:27.050Z,981.12
2019-01-09T01:11:27.255Z,981.15
2019-01-09T01:12:28.078Z,981.15
2019-01-09T01:13:27.682Z,981.12
2019-01-09T01:14:31.584Z,981.18
2019-01-09T01:15:32.058Z,981.14
2019-01-09T01:16:30.550Z,981.12
2019-01-09T01:17:31.147Z,981.09
2019-01-09T01:18:32.087Z,981.12
2019-01-09T01:19:28.713Z,981.16
2019-01-09T01:20:32.584Z,981.14
2019-01-09T01:21:32.595Z,981.12
2019-01-09T01:22:32.291Z,981.18
2019-01-09T01:23:37.088Z,981.20
2019-01-09T01:24:50.628Z,981.17
2019-01-09T01:25:32.560Z,981.16
2019-01-09T01:26:29.906Z,981.20
2019-01-09T01:27:32.108Z,981.20
2019-01-09T01:28:35.043Z,981.26
2019-01-09T01:29:30.435Z,981.21
2019-01-09T01:30:32.587Z,981.26
2019-01-09T01:31:32.591Z,981.30
2019-01-09T01:32:33.536Z,981.27
2019-01-09T01:33:34.094Z,981.28
2019-01-09T01:34:33.101Z,981.25
2019-01-09T01:35:54.511Z,981.26
2019-01-09T01:36:33.093Z,981.24
2019-01-09T01:37:35.589Z,981.25
2019-01-09T01:38:32.814Z,981.21
2019-01-09T01:39:35.638Z,981.24
2019-01-09T01:40:43.732Z,981.26
2019-01-09T01:41:35.046Z,981.23
2019-01-09T01:42:39.472Z,981.22
2019-01-09T01:43:48.585Z,981.26
2019-01-09T01:44:32.769Z,981.25
2019-01-09T01:45:40.210Z,981.26
2019-01-09T01:46:33.127Z,981.24
2019-01-09T01:47:38.061Z,981.24
2019-01-09T01:48:40.097Z,981.26
2019-01-09T01:49:38.559Z,981.24
2019-01-09T01:50:43.039Z,981.24
2019-01-09T01:51:38.120Z,981.22
2019-01-09T01:52:58.138Z,981.13
2019-01-09T01:53:36.085Z,981.23
2019-01-09T01:54:36.596Z,981.17
2019-01-09T01:55:34.830Z,981.18
2019-01-09T01:56:36.590Z,981.14
2019-01-09T01:57:58.093Z,981.22
2019-01-09T01:58:39.088Z,981.28
2019-01-09T01:59:39.127Z,981.29
2019-01-09T02:00:43.078Z,981.22
2019-01-09T02:01:37.632Z,981.29
2019-01-09T02:02:38.075Z,981.24
2019-01-09T02:03:37.268Z,981.30
2019-01-09T02:04:38.143Z,981.33
2019-01-09T02:05:38.049Z,981.29
2019-01-09T02:06:38.649Z,981.21
2019-01-09T02:07:43.872Z,981.31
2019-01-09T02:08:52.695Z,981.21
2019-01-09T02:09:37.266Z,981.27
2019-01-09T02:10:37.462Z,981.26
2019-01-09T02:11:37.676Z,981.27
2019-01-09T02:12:37.877Z,981.27
2019-01-09T02:13:40.067Z,981.19
2019-01-09T02:14:39.288Z,981.29
2019-01-09T02:15:40.131Z,981.28
2019-01-09T02:16:44.708Z,981.20
2019-01-09T02:18:07.835Z,981.36
2019-01-09T02:18:41.606Z,981.33
2019-01-09T02:19:39.226Z,981.38
2019-01-09T02:20:43.421Z,981.28
2019-01-09T02:21:43.131Z,981.45
2019-01-09T02:22:43.592Z,981.42
2019-01-09T02:23:41.592Z,981.59
2019-01-09T02:24:55.604Z,981.52
2019-01-09T02:25:42.085Z,981.59
2019-01-09T02:26:42.120Z,981.62
2019-01-09T02:27:47.096Z,981.67
2019-01-09T02:28:44.543Z,981.63
2019-01-09T02:29:47.590Z,981.61
2019-01-09T02:30:42.584Z,981.51
2019-01-09T02:31:41.222Z,981.54
2019-01-09T02:32:43.096Z,981.62
2019-01-09T02:33:44.053Z,981.59
2019-01-09T02:34:41.682Z,981.51
2019-01-09T02:35:43.585Z,981.54
2019-01-09T02:37:03.039Z,981.62
2019-01-09T02:37:58.139Z,981.49
2019-01-09T02:38:42.433Z,981.58
2019-01-09T02:39:46.591Z,981.54
2019-01-09T02:40:46.595Z,981.70
2019-01-09T02:41:50.710Z,981.71
2019-01-09T02:42:43.360Z,981.65
2019-01-09T02:43:43.458Z,981.68
2019-01-09T02:44:47.091Z,981.70
2019-01-09T02:45:50.630Z,981.66
2019-01-09T02:46:45.857Z,981.69
2019-01-09T02:47:52.078Z,981.64
2019-01-09T02:48:48.436Z,981.67
2019-01-09T02:49:49.106Z,981.58
2019-01-09T02:50:47.046Z,981.61
2019-01-09T02:52:00.094Z,981.63
2019-01-09T02:52:48.592Z,981.63
2019-01-09T02:53:45.903Z,981.59
2019-01-09T02:54:49.287Z,981.57
2019-01-09T02:55:47.260Z,981.56
2019-01-09T02:56:48.043Z,981.52
2019-01-09T02:57:56.601Z,981.61
2019-01-09T02:58:50.018Z,981.57
2019-01-09T02:59:48.062Z,981.49
2019-01-09T03:00:46.019Z,981.47
2019-01-09T03:01:54.087Z,981.40
2019-01-09T03:02:50.092Z,981.56
2019-01-09T03:03:50.886Z,981.54
2019-01-09T03:04:48.548Z,981.40
2019-01-09T03:05:47.534Z,981.51
2019-01-09T03:06:50.100Z,981.59
2019-01-09T03:07:49.087Z,981.49
2019-01-09T03:08:49.705Z,981.54
2019-01-09T03:09:51.651Z,981.59
2019-01-09T03:10:47.745Z,981.53
2019-01-09T03:11:55.627Z,981.60
2019-01-09T03:12:49.586Z,981.61
2019-01-09T03:13:49.050Z,981.63
2019-01-09T03:14:50.132Z,981.58
2019-01-09T03:15:51.173Z,981.59
2019-01-09T03:16:49.784Z,981.55
2019-01-09T03:17:55.899Z,981.54
2019-01-09T03:19:10.102Z,981.43
2019-01-09T03:19:49.232Z,981.57
2019-01-09T03:20:51.092Z,981.48
2019-01-09T03:21:51.587Z,981.44
2019-01-09T03:22:54.727Z,981.47
2019-01-09T03:24:06.590Z,981.48
2019-01-09T03:26:25.776Z,981.43
2019-01-09T03:27:22.187Z,981.43
2019-01-09T03:28:22.393Z,981.41
2019-01-09T03:29:28.537Z,981.38
2019-01-09T03:30:26.298Z,981.37
2019-01-09T03:31:28.311Z,981.33
2019-01-09T03:32:26.266Z,981.31
2019-01-09T03:33:28.266Z,981.31
2019-01-09T03:34:23.355Z,981.35
2019-01-09T03:35:29.385Z,981.29
2019-01-09T03:36:32.599Z,981.30
2019-01-09T03:37:32.771Z,981.32
2019-01-09T03:38:27.787Z,981.27
2019-01-09T03:39:26.741Z,981.23
2019-01-09T03:40:24.465Z,981.32
2019-01-09T03:41:47.668Z,981.19
2019-01-09T03:42:29.138Z,981.19
2019-01-09T03:43:26.810Z,981.33
2019-01-09T03:44:26.795Z,981.15
2019-01-09T03:46:02.317Z,981.23
2019-01-09T03:46:27.245Z,981.16
2019-01-09T03:47:25.839Z,981.37
2019-01-09T03:48:27.659Z,981.34
2019-01-09T03:49:28.826Z,981.34
2019-01-09T03:50:26.413Z,981.43
2019-01-09T03:51:31.237Z,981.43
2019-01-09T03:52:29.781Z,981.45
2019-01-09T03:53:30.785Z,981.45
2019-01-09T03:54:43.352Z,981.44
2019-01-09T03:55:31.246Z,981.46
2019-01-09T03:56:34.299Z,981.36
2019-01-09T03:57:44.302Z,981.33
2019-01-09T03:58:29.781Z,981.38
2019-01-09T03:59:29.204Z,981.33
2019-01-09T04:00:28.284Z,981.42
2019-01-09T04:01:36.302Z,981.36
2019-01-09T04:02:30.352Z,981.34
2019-01-09T04:03:30.783Z,981.26
2019-01-09T04:04:31.241Z,981.31
2019-01-09T04:05:30.735Z,981.32
2019-01-09T04:06:41.838Z,981.34
2019-01-09T04:07:33.509Z,981.32
2019-01-09T04:08:30.248Z,981.27
2019-01-09T04:09:30.757Z,981.34
2019-01-09T04:10:33.787Z,981.35
2019-01-09T04:11:34.753Z,981.29
2019-01-09T04:12:33.792Z,981.31
2019-01-09T04:13:47.258Z,981.31
2019-01-09T04:14:34.479Z,981.42
2019-01-09T04:15:30.593Z,981.19
2019-01-09T04:16:32.759Z,981.42
2019-01-09T04:17:31.325Z,981.25
2019-01-09T04:18:38.798Z,981.32
2019-01-09T04:19:36.318Z,981.38
2019-01-09T04:20:32.591Z,981.43
2019-01-09T04:21:31.653Z,981.29
2019-01-09T04:22:33.802Z,981.27
2019-01-09T04:23:35.780Z,981.31
2019-01-09T04:24:39.571Z,981.39
2019-01-09T04:25:55.326Z,981.38
2019-01-09T04:26:32.441Z,981.34
2019-01-09T04:27:34.289Z,981.45
2019-01-09T04:28:34.840Z,981.38
2019-01-09T04:29:33.097Z,981.40
2019-01-09T04:30:35.744Z,981.34
2019-01-09T04:31:35.340Z,981.27
2019-01-09T04:32:37.237Z,981.34
2019-01-09T04:33:36.247Z,981.34
2019-01-09T04:34:35.744Z,981.42
2019-01-09T04:35:35.788Z,981.34
2019-01-09T04:36:34.768Z,981.29
2019-01-09T04:37:34.244Z,981.35
2019-01-09T04:38:34.449Z,981.38
2019-01-09T04:39:37.754Z,981.37
2019-01-09T04:40:34.852Z,981.42
2019-01-09T04:41:39.815Z,981.35
2019-01-09T04:42:37.230Z,981.29
2019-01-09T04:43:35.519Z,981.33
2019-01-09T04:44:39.281Z,981.34
2019-01-09T04:45:41.807Z,981.39
2019-01-09T04:46:37.819Z,981.36
2019-01-09T04:47:40.737Z,981.30
2019-01-09T04:48:38.342Z,981.34
2019-01-09T04:49:59.323Z,981.37
2019-01-09T04:50:43.430Z,981.40
2019-01-09T04:51:36.839Z,981.31
2019-01-09T04:52:38.801Z,981.34
2019-01-09T04:53:38.274Z,981.24
2019-01-09T04:54:37.352Z,981.33
2019-01-09T04:55:39.303Z,981.41
2019-01-09T04:56:39.684Z,981.33
2019-01-09T04:57:42.601Z,981.37
2019-01-09T04:58:39.748Z,981.36
2019-01-09T04:59:40.291Z,981.37
2019-01-09T05:00:40.283Z,981.42
2019-01-09T05:01:38.615Z,981.37
2019-01-09T05:02:46.789Z,981.35
2019-01-09T05:03:42.787Z,981.41
2019-01-09T05:04:39.103Z,981.28
2019-01-09T05:05:41.242Z,981.44
2019-01-09T05:06:39.496Z,981.49
2019-01-09T05:07:43.283Z,981.27
2019-01-09T05:08:42.340Z,981.33
2019-01-09T05:09:41.820Z,981.37
2019-01-09T05:11:03.795Z,981.36
2019-01-09T05:11:40.265Z,981.37
2019-01-09T05:12:42.290Z,981.40
2019-01-09T05:13:44.283Z,981.39
2019-01-09T05:14:41.641Z,981.44
2019-01-09T05:15:44.422Z,981.41
2019-01-09T05:16:41.979Z,981.38
2019-01-09T05:17:42.106Z,981.38
2019-01-09T05:19:05.813Z,981.37
2019-01-09T05:19:45.285Z,981.44
2019-01-09T05:20:45.404Z,981.50
2019-01-09T05:21:45.786Z,981.38
2019-01-09T05:22:43.737Z,981.44
2019-01-09T05:23:43.235Z,981.35
2019-01-09T05:24:49.784Z,981.43
2019-01-09T05:25:44.778Z,981.54
2019-01-09T05:26:44.285Z,981.42
2019-01-09T05:27:47.273Z,981.46
2019-01-09T05:28:44.828Z,981.46
2019-01-09T05:29:44.844Z,981.44
2019-01-09T05:30:45.796Z,981.47
2019-01-09T05:31:45.450Z,981.45
2019-01-09T05:32:45.284Z,981.44
2019-01-09T05:33:45.786Z,981.53
2019-01-09T05:34:46.498Z,981.45
2019-01-09T05:35:45.759Z,981.48
2019-01-09T05:36:46.834Z,981.44
2019-01-09T05:37:44.489Z,981.50
2019-01-09T05:38:46.282Z,981.44
2019-01-09T05:39:46.287Z,981.55
2019-01-09T05:40:44.870Z,981.59
2019-01-09T05:41:46.791Z,981.52
2019-01-09T05:42:49.729Z,981.51
2019-01-09T05:43:49.633Z,981.58
2019-01-09T05:44:46.555Z,981.57
2019-01-09T05:45:46.518Z,981.60
2019-01-09T05:46:53.815Z,981.57
2019-01-09T05:47:47.821Z,981.51
2019-01-09T05:49:08.838Z,981.60
2019-01-09T05:49:48.270Z,981.57
2019-01-09T05:50:48.287Z,981.63
2019-01-09T05:51:47.241Z,981.62
2019-01-09T05:52:48.736Z,981.65
2019-01-09T05:53:47.939Z,981.63
2019-01-09T05:54:52.087Z,981.66
2019-01-09T05:55:48.319Z,981.66
2019-01-09T05:57:04.245Z,981.63
2019-01-09T05:57:52.230Z,981.75
2019-01-09T05:58:48.703Z,981.65
2019-01-09T06:00:10.741Z,981.58
2019-01-09T06:00:49.249Z,981.63
2019-01-09T06:02:16.796Z,981.67
2019-01-09T06:02:48.371Z,981.62
2019-01-09T06:03:52.283Z,981.73
2019-01-09T06:04:56.286Z,981.68
2019-01-09T06:05:50.314Z,981.73
2019-01-09T06:06:49.914Z,981.76
2019-01-09T06:07:52.783Z,981.68
2019-01-09T06:08:49.258Z,981.69
2019-01-09T06:09:49.372Z,981.70
2019-01-09T06:10:50.560Z,981.68
2019-01-09T06:11:49.775Z,981.76
2019-01-09T06:12:50.988Z,981.76
2019-01-09T06:13:50.196Z,981.72
2019-01-09T06:14:52.286Z,981.80
2019-01-09T06:15:53.253Z,981.79
2019-01-09T06:16:58.826Z,981.81
2019-01-09T06:17:52.787Z,981.80
2019-01-09T06:20:28.856Z,981.79
2019-01-09T06:21:24.088Z,981.79
2019-01-09T06:22:26.144Z,981.82
2019-01-09T06:23:25.372Z,981.75
2019-01-09T06:24:25.875Z,981.86
2019-01-09T06:25:39.868Z,981.90
2019-01-09T06:26:24.308Z,981.89
2019-01-09T06:27:26.368Z,981.87
2019-01-09T06:28:28.371Z,981.88
2019-01-09T06:29:27.338Z,981.89
2019-01-09T06:30:31.370Z,981.77
2019-01-09T06:31:24.948Z,981.90
2019-01-09T06:32:40.867Z,981.85
2019-01-09T06:33:26.896Z,981.85
2019-01-09T06:34:29.430Z,981.81
2019-01-09T06:35:25.678Z,981.94
2019-01-09T06:36:27.412Z,981.90
2019-01-09T06:37:27.584Z,981.87
2019-01-09T06:38:27.905Z,981.99
2019-01-09T06:39:27.920Z,982.08
2019-01-09T06:40:28.931Z,981.85
2019-01-09T06:41:34.422Z,981.92
2019-01-09T06:42:28.396Z,981.88
2019-01-09T06:43:28.329Z,982.12
2019-01-09T06:44:27.422Z,982.00
2019-01-09T06:45:27.856Z,981.96
2019-01-09T06:46:28.874Z,981.96
2019-01-09T06:47:31.371Z,982.03
2019-01-09T06:48:27.565Z,981.97
2019-01-09T06:49:29.818Z,981.99
2019-01-09T06:50:29.878Z,982.09
2019-01-09T06:51:35.829Z,982.04
2019-01-09T06:52:31.868Z,982.13
2019-01-09T06:53:32.410Z,982.03
2019-01-09T06:54:31.345Z,982.30
2019-01-09T06:55:30.370Z,982.20
2019-01-09T06:56:30.371Z,982.23
2019-01-09T06:57:30.857Z,982.22
2019-01-09T06:58:31.867Z,982.25
2019-01-09T06:59:30.907Z,982.19
2019-01-09T07:00:41.428Z,982.19
2019-01-09T07:01:34.160Z,982.32
2019-01-09T07:02:31.373Z,982.27
2019-01-09T07:03:30.727Z,982.38
2019-01-09T07:04:31.876Z,982.29
2019-01-09T07:05:52.925Z,982.40
2019-01-09T07:06:38.366Z,982.38
2019-01-09T07:07:51.699Z,982.31
2019-01-09T07:08:33.325Z,982.37
2019-01-09T07:09:34.901Z,982.50
2019-01-09T07:10:32.846Z,982.40
2019-01-09T07:11:35.388Z,982.43
2019-01-09T07:12:47.368Z,982.42
2019-01-09T07:13:32.334Z,982.42
2019-01-09T07:14:31.933Z,982.43
2019-01-09T07:15:32.133Z,982.40
2019-01-09T07:16:40.829Z,982.39
2019-01-09T07:17:32.555Z,982.56
2019-01-09T07:18:49.366Z,982.44
2019-01-09T07:19:36.387Z,982.46
2019-01-09T07:20:32.968Z,982.47
2019-01-09T07:21:55.888Z,982.56
2019-01-09T07:22:35.317Z,982.54
2019-01-09T07:23:33.548Z,982.58
2019-01-09T07:24:34.869Z,982.59
2019-01-09T07:25:37.342Z,982.54
2019-01-09T07:26:34.955Z,982.50
2019-01-09T07:27:34.170Z,982.56
2019-01-09T07:28:35.608Z,982.57
2019-01-09T07:29:34.550Z,982.55
2019-01-09T07:30:36.392Z,982.52
2019-01-09T07:31:41.883Z,982.52
2019-01-09T07:32:35.097Z,982.54
2019-01-09T07:33:42.869Z,982.61
2019-01-09T07:34:36.868Z,982.63
2019-01-09T07:35:37.841Z,982.58
2019-01-09T07:36:36.564Z,982.59
2019-01-09T07:37:44.685Z,982.58
2019-01-09T07:38:37.841Z,982.59
2019-01-09T07:39:36.876Z,982.58
2019-01-09T07:40:36.338Z,982.47
2019-01-09T07:41:36.547Z,982.63
2019-01-09T07:42:36.691Z,982.56
2019-01-09T07:43:36.774Z,982.60
2019-01-09T07:44:37.039Z,982.59
2019-01-09T07:45:39.862Z,982.59
2019-01-09T07:46:39.887Z,982.64
2019-01-09T07:47:37.494Z,982.60
2019-01-09T07:48:38.574Z,982.61
2019-01-09T07:49:41.370Z,982.61
2019-01-09T07:50:40.830Z,982.70
2019-01-09T07:51:40.823Z,982.56
2019-01-09T07:52:38.287Z,982.66
2019-01-09T07:53:39.528Z,982.66
2019-01-09T07:54:40.365Z,982.70
2019-01-09T07:55:38.763Z,982.68
2019-01-09T07:56:46.868Z,982.66
2019-01-09T07:57:40.893Z,982.68
2019-01-09T07:58:40.315Z,982.67
2019-01-09T07:59:42.431Z,982.64
2019-01-09T08:00:55.370Z,982.63
2019-01-09T08:01:41.387Z,982.63
2019-01-09T08:02:43.870Z,982.65
2019-01-09T08:03:41.868Z,982.65
2019-01-09T08:04:41.866Z,982.65
2019-01-09T08:05:41.921Z,982.63
2019-01-09T08:06:44.373Z,982.61
2019-01-09T08:07:42.437Z,982.68
2019-01-09T08:08:42.850Z,982.61
2019-01-09T08:09:45.537Z,982.67
2019-01-09T08:10:47.034Z,982.60
2019-01-09T08:11:41.944Z,982.64
2019-01-09T08:12:43.558Z,982.63
2019-01-09T08:13:43.906Z,982.62
2019-01-09T08:14:43.953Z,982.64
2019-01-09T08:15:44.023Z,982.65
2019-01-09T08:16:45.872Z,982.73
2019-01-09T08:17:42.828Z,982.67
2019-01-09T08:18:43.439Z,982.72
2019-01-09T08:19:46.369Z,982.70
2019-01-09T08:20:46.824Z,982.70
2019-01-09T08:21:44.992Z,982.73
2019-01-09T08:22:44.878Z,982.79
2019-01-09T08:23:46.877Z,982.79
2019-01-09T08:24:47.379Z,982.78
2019-01-09T08:25:45.371Z,982.80
2019-01-09T08:26:44.346Z,982.80
2019-01-09T08:27:45.371Z,982.83
2019-01-09T08:28:47.920Z,982.87
2019-01-09T08:29:51.875Z,982.94
2019-01-09T08:30:44.208Z,982.88
2019-01-09T08:31:44.397Z,982.93
2019-01-09T08:32:48.365Z,982.93
2019-01-09T08:33:47.114Z,982.84
2019-01-09T08:34:47.364Z,982.98
2019-01-09T08:35:47.130Z,982.96
2019-01-09T08:36:46.831Z,982.93
2019-01-09T08:37:51.870Z,983.01
2019-01-09T08:38:46.448Z,983.10
2019-01-09T08:39:47.372Z,983.02
2019-01-09T08:40:49.372Z,983.12
2019-01-09T08:41:49.886Z,982.96
2019-01-09T08:42:47.868Z,983.05
2019-01-09T08:43:46.216Z,983.05
2019-01-09T08:44:47.465Z,983.07
2019-01-09T08:45:48.378Z,983.12
2019-01-09T08:46:46.685Z,983.17
2019-01-09T08:47:46.886Z,983.08
2019-01-09T08:48:50.866Z,983.11
2019-01-09T08:49:47.358Z,983.04
2019-01-09T08:50:47.533Z,983.27
2019-01-09T08:51:48.059Z,983.22
2019-01-09T08:52:49.875Z,983.17
2019-01-09T08:54:03.879Z,983.25
2019-01-09T08:54:49.195Z,983.28
2019-01-09T08:56:05.328Z,983.29
2019-01-09T08:57:17.641Z,983.26
2019-01-09T08:57:49.749Z,983.31
2019-01-09T08:58:49.836Z,983.39
2019-01-09T08:59:51.912Z,983.30
2019-01-09T09:01:11.893Z,983.42
2019-01-09T09:01:51.442Z,983.39
2019-01-09T09:02:49.654Z,983.38
2019-01-09T09:03:50.830Z,983.38
2019-01-09T09:04:50.028Z,983.34
2019-01-09T09:05:54.867Z,983.40
2019-01-09T09:06:56.322Z,983.31
2019-01-09T09:07:52.377Z,983.40
2019-01-09T09:08:58.416Z,983.40
2019-01-09T09:09:52.894Z,983.38
2019-01-09T09:10:52.904Z,983.36
2019-01-09T09:11:55.402Z,983.41
2019-01-09T09:12:54.395Z,983.48
2019-01-09T09:14:00.326Z,983.50
2019-01-09T09:14:53.373Z,983.45
2019-01-09T09:16:00.827Z,983.42
2019-01-09T09:16:53.874Z,983.38
2019-01-09T09:18:03.135Z,983.47
2019-01-09T09:18:54.367Z,983.39
2019-01-09T09:19:59.387Z,983.43
2019-01-09T09:20:53.858Z,983.40
2019-01-09T09:21:54.884Z,983.33
2019-01-09T09:22:54.869Z,983.41
2019-01-09T09:24:15.870Z,983.50
2019-01-09T09:25:01.386Z,983.24
2019-01-09T09:25:54.620Z,983.41
2019-01-09T09:26:57.377Z,983.52
2019-01-09T09:27:53.813Z,983.46
2019-01-09T09:28:54.035Z,983.42
2019-01-09T09:29:54.228Z,983.43
2019-01-09T09:30:57.360Z,983.45
2019-01-09T09:31:55.591Z,983.53
2019-01-09T09:32:59.327Z,983.51
2019-01-09T09:33:55.971Z,983.55
2019-01-09T09:34:58.889Z,983.52
2019-01-09T09:35:58.868Z,983.55
2019-01-09T09:36:55.479Z,983.57
2019-01-09T09:37:58.411Z,983.54
2019-01-09T09:38:59.442Z,983.63
2019-01-09T09:40:32.524Z,983.60
2019-01-09T09:41:04.884Z,983.61
2019-01-09T09:48:38.843Z,983.51
2019-01-09T09:49:42.911Z,983.56
2019-01-09T09:50:37.927Z,983.51
2019-01-09T09:51:36.264Z,983.55
2019-01-09T09:52:36.496Z,983.54
2019-01-09T09:53:38.390Z,983.53
2019-01-09T09:54:40.380Z,983.60
2019-01-09T09:55:38.903Z,983.58
2019-01-09T09:56:39.909Z,983.64
2019-01-09T09:57:38.251Z,983.64
2019-01-09T09:58:45.407Z,983.63
2019-01-09T09:59:37.661Z,983.67
2019-01-09T10:00:41.378Z,983.70
2019-01-09T10:01:39.378Z,983.65
2019-01-09T10:02:37.966Z,983.66
2019-01-09T10:03:38.166Z,983.69
2019-01-09T10:04:39.892Z,983.78
2019-01-09T10:05:38.481Z,983.67
2019-01-09T10:06:38.698Z,983.66
2019-01-09T10:07:38.917Z,983.74
2019-01-09T10:08:41.605Z,983.70
2019-01-09T10:09:39.345Z,983.71
2019-01-09T10:10:39.446Z,983.79
2019-01-09T10:11:43.380Z,983.75
2019-01-09T10:12:39.864Z,983.77
2019-01-09T10:13:41.878Z,983.85
2019-01-09T10:14:40.207Z,983.76
2019-01-09T10:15:48.702Z,983.80
2019-01-09T10:16:40.598Z,983.76
2019-01-09T10:17:44.419Z,983.76
2019-01-09T10:18:41.005Z,983.75
2019-01-09T10:19:41.258Z,983.79
2019-01-09T10:20:41.462Z,983.84
2019-01-09T10:21:41.720Z,983.84
2019-01-09T10:22:41.790Z,983.83
2019-01-09T10:23:43.891Z,983.82
2019-01-09T10:24:44.920Z,983.94
2019-01-09T10:25:42.343Z,983.82
2019-01-09T10:26:46.073Z,983.86
2019-01-09T10:27:44.400Z,983.81
2019-01-09T10:28:44.377Z,983.87
2019-01-09T10:29:46.900Z,983.94
2019-01-09T10:30:44.912Z,983.86
2019-01-09T10:31:47.683Z,983.83
2019-01-09T10:32:43.405Z,983.85
2019-01-09T10:33:47.402Z,983.87
2019-01-09T10:34:44.735Z,983.90
2019-01-09T10:35:45.880Z,983.91
2019-01-09T10:36:45.888Z,983.90
2019-01-09T10:37:47.880Z,983.95
2019-01-09T10:38:50.855Z,983.94
2019-01-09T10:39:49.346Z,983.98
2019-01-09T10:40:44.733Z,983.95
2019-01-09T10:41:56.560Z,983.94
2019-01-09T10:42:48.905Z,983.96
2019-01-09T10:43:46.888Z,984.01
2019-01-09T10:44:45.337Z,984.05
2019-01-09T10:45:46.552Z,984.09
2019-01-09T10:46:47.432Z,984.21
2019-01-09T10:47:47.383Z,984.02
2019-01-09T10:48:47.859Z,984.03
2019-01-09T10:49:49.936Z,984.07
2019-01-09T10:50:46.399Z,984.05
2019-01-09T10:51:46.589Z,984.10
2019-01-09T10:52:48.380Z,984.01
2019-01-09T10:53:48.936Z,984.08
2019-01-09T10:54:48.882Z,984.01
2019-01-09T10:56:11.964Z,984.00
2019-01-09T10:56:49.380Z,984.02
2019-01-09T10:57:47.611Z,984.08
2019-01-09T10:58:51.380Z,983.96
2019-01-09T10:59:50.909Z,983.96
2019-01-09T11:00:49.896Z,984.02
2019-01-09T11:01:54.892Z,983.96
2019-01-09T11:02:50.451Z,983.97
2019-01-09T11:03:52.377Z,983.96
2019-01-09T11:04:51.333Z,983.94
2019-01-09T11:06:04.889Z,983.98
2019-01-09T11:06:49.210Z,983.98
2019-01-09T11:07:51.378Z,983.92
2019-01-09T11:08:51.396Z,983.96
2019-01-09T11:09:51.377Z,984.00
2019-01-09T11:10:49.832Z,983.97
2019-01-09T11:11:50.030Z,983.97
2019-01-09T11:12:50.282Z,983.94
2019-01-09T11:13:53.890Z,983.98
2019-01-09T11:14:50.643Z,983.93
2019-01-09T11:15:50.829Z,983.95
2019-01-09T11:16:52.886Z,983.92
2019-01-09T11:17:51.856Z,983.91
2019-01-09T11:18:51.431Z,983.97
2019-01-09T11:19:55.401Z,983.91
2019-01-09T11:20:53.382Z,983.94
2019-01-09T11:21:55.883Z,984.03
2019-01-09T11:22:52.213Z,984.01
2019-01-09T11:23:52.455Z,983.97
2019-01-09T11:24:54.382Z,983.91
2019-01-09T11:25:54.412Z,983.97
2019-01-09T11:27:17.893Z,983.94
2019-01-09T11:27:53.201Z,983.95
2019-01-09T11:28:56.366Z,983.94
2019-01-09T11:29:57.380Z,983.92
2019-01-09T11:30:55.383Z,983.98
2019-01-09T11:31:56.331Z,983.85
2019-01-09T11:32:57.881Z,983.82
2019-01-09T11:33:57.881Z,983.94
2019-01-09T11:34:55.327Z,983.93
2019-01-09T11:35:56.406Z,983.89
2019-01-09T11:36:54.725Z,983.90
2019-01-09T11:37:56.887Z,983.93
2019-01-09T11:39:17.882Z,983.88
2019-01-09T11:39:55.196Z,983.97
2019-01-09T11:40:58.426Z,983.97
2019-01-09T11:41:57.378Z,983.99
2019-01-09T11:42:57.378Z,983.98
2019-01-09T11:43:55.978Z,983.95
2019-01-09T11:45:02.216Z,983.95
2019-01-09T11:45:56.384Z,983.95
2019-01-09T11:46:58.378Z,983.94
2019-01-09T11:47:58.430Z,983.95
2019-01-09T11:48:58.910Z,984.06
2019-01-09T11:49:57.171Z,983.74
2019-01-09T11:50:58.877Z,983.91
2019-01-09T11:52:01.384Z,983.92
2019-01-09T11:52:58.595Z,983.97
2019-01-09T11:53:57.830Z,983.99
2019-01-09T11:54:59.884Z,984.03
2019-01-09T11:56:13.879Z,983.91
2019-01-09T11:56:59.896Z,983.97
2019-01-09T11:57:58.333Z,984.07
2019-01-09T11:59:02.404Z,984.07
2019-01-09T12:00:19.759Z,983.94
2019-01-09T12:00:59.012Z,984.03
2019-01-09T12:01:59.051Z,984.04
2019-01-09T12:03:00.405Z,983.94
2019-01-09T12:03:59.484Z,983.99
2019-01-09T12:05:01.414Z,983.97
2019-01-09T12:05:59.856Z,984.08
2019-01-09T12:07:01.896Z,984.03
2019-01-09T12:08:00.081Z,983.99
2019-01-09T12:09:07.839Z,984.05
2019-01-09T12:10:07.389Z,984.07
2019-01-09T12:11:01.740Z,984.02
2019-01-09T12:12:00.804Z,983.98
2019-01-09T12:13:02.840Z,984.12
2019-01-09T12:14:03.930Z,984.07
2019-01-09T12:15:04.891Z,984.04
2019-01-09T12:16:08.012Z,984.07
2019-01-09T12:17:03.440Z,984.06
2019-01-09T12:18:01.850Z,984.14
2019-01-09T12:19:01.951Z,984.06
2019-01-09T12:20:03.893Z,984.13
2019-01-09T12:21:26.912Z,984.14
2019-01-09T12:22:02.574Z,984.17
2019-01-09T12:23:07.275Z,984.10
2019-01-09T12:24:02.958Z,984.14
2019-01-09T12:25:04.890Z,984.21
2019-01-09T12:26:09.253Z,984.19
2019-01-09T12:27:10.896Z,984.20
2019-01-09T12:28:05.423Z,984.15
2019-01-09T12:29:06.415Z,984.17
2019-01-09T12:30:05.418Z,984.21
2019-01-09T12:31:04.995Z,984.19
2019-01-09T12:32:04.081Z,984.10
2019-01-09T12:34:39.414Z,984.20
2019-01-09T12:35:39.006Z,984.32
2019-01-09T12:36:37.386Z,984.25
2019-01-09T12:37:45.422Z,984.24
2019-01-09T12:38:37.658Z,984.21
2019-01-09T12:39:37.754Z,984.23
2019-01-09T12:40:41.932Z,984.19
2019-01-09T12:41:39.918Z,984.22